Time;durP1;ratioP1;P1;durP2;ratioP2;P2;SDS_P1;SDS_P2;PMS_P1;PMS_P2;Temp;Humidity;BMP_temperature;BMP_pressure;BME280_temperature;BME280_humidity;BME280_pressure;Samples;Min_cycle;Max_cycle;Signal;HPM_P1;HPM_P2
2022/10/24 06:28:58;;;;;;;;;3.50;1.00;;;;;18.38;61.93;100728.09;3051214;22;46340;-85
2022/10/24 06:30:09;;;;;;;;;2.00;2.00;;;;;18.34;62.00;100735.44;3059707;22;45351;-84
2022/10/24 06:31:20;;;;;;;;;7.00;1.00;;;;;18.30;62.22;100726.78;3058624;22;46402;-84
2022/10/24 06:32:30;;;;;;;;;3.50;1.00;;;;;18.29;62.38;100722.44;3059259;22;45241;-83
2022/10/24 06:33:41;;;;;;;;;1.75;0.75;;;;;18.27;62.43;100736.78;3043045;22;47985;-84
2022/10/24 06:34:51;;;;;;;;;3.25;0.50;;;;;18.29;62.24;100733.09;3048216;22;45199;-84
2022/10/24 06:36:04;;;;;;;;;2.25;0.75;;;;;18.32;62.17;100732.03;3059726;22;46241;-84
2022/10/24 06:37:14;;;;;;;;;1.00;0.25;;;;;18.27;62.04;100737.63;3059429;22;45252;-84
2022/10/24 06:38:25;;;;;;;;;1.00;1.00;;;;;18.28;62.27;100738.47;3059641;22;46171;-84
2022/10/24 06:39:35;;;;;;;;;5.00;1.50;;;;;18.27;62.25;100734.13;3043394;22;45317;-84
2022/10/24 06:40:46;;;;;;;;;1.50;1.00;;;;;18.30;61.92;100739.22;3047979;22;46237;-84
2022/10/24 06:41:56;;;;;;;;;2.75;0.25;;;;;18.35;62.15;100745.09;3059939;22;44671;-84
2022/10/24 06:43:07;;;;;;;;;1.00;1.00;;;;;18.37;61.79;100745.03;3059219;22;46287;-84
2022/10/24 06:44:17;;;;;;;;;2.75;1.00;;;;;18.36;62.26;100751.28;3059829;22;45094;-84
2022/10/24 06:45:27;;;;;;;;;7.00;2.25;;;;;18.33;62.35;100750.53;3059563;22;45186;-84
2022/10/24 06:46:38;;;;;;;;;1.50;0.50;;;;;18.34;62.06;100756.72;3059838;22;45248;-84
2022/10/24 06:47:50;;;;;;;;;4.50;1.00;;;;;18.31;61.95;100749.78;3042996;22;46049;-83
2022/10/24 06:49:00;;;;;;;;;3.50;1.00;;;;;18.32;61.94;100753.31;3048338;22;45149;-83
2022/10/24 06:50:10;;;;;;;;;1.25;1.00;;;;;18.32;61.79;100758.63;3059462;22;46229;-82
2022/10/24 06:51:21;;;;;;;;;2.75;2.00;;;;;18.31;62.23;100764.91;3060035;22;45174;-82
2022/10/24 06:52:32;;;;;;;;;2.50;1.25;;;;;18.30;62.06;100760.50;3059571;22;45342;-82
2022/10/24 06:53:42;;;;;;;;;3.50;2.00;;;;;18.30;61.99;100769.34;3043291;22;45088;-82
2022/10/24 06:54:52;;;;;;;;;5.00;0.75;;;;;18.29;62.28;100761.47;3047927;22;45171;-82
2022/10/24 06:56:05;;;;;;;;;5.25;2.00;;;;;18.29;61.98;100767.66;3059726;22;45269;-83
2022/10/24 06:57:16;;;;;;;;;1.00;1.00;;;;;18.27;61.88;100766.88;3059444;22;45409;-83
2022/10/24 06:58:31;;;;;;;;;4.50;1.00;;;;;18.30;62.40;100763.19;3059332;22;45439;-83
2022/10/24 06:59:41;;;;;;;;;7.25;2.00;;;;;18.30;62.27;100768.50;3059491;22;45271;-83
2022/10/24 07:00:52;;;;;;;;;0.50;0.50;;;;;18.33;61.89;100773.63;3059600;22;45113;-83
2022/10/24 07:02:02;;;;;;;;;2.75;2.00;;;;;18.34;61.97;100770.03;3059739;22;46476;-83
2022/10/24 07:03:14;;;;;;;;;6.25;1.50;;;;;18.31;61.93;100770.22;3057124;22;45248;-83
2022/10/24 07:04:25;;;;;;;;;3.25;2.00;;;;;18.33;62.11;100770.97;3058343;22;46013;-83
2022/10/24 07:05:36;;;;;;;;;2.00;2.00;;;;;18.36;62.44;100777.88;3042632;22;45262;-83
2022/10/24 07:06:46;;;;;;;;;3.75;2.00;;;;;18.38;62.19;100778.63;3048077;22;45400;-84
2022/10/24 07:07:56;;;;;;;;;2.25;1.00;;;;;18.35;62.08;100786.84;3042799;22;45453;-84
2022/10/24 07:09:07;;;;;;;;;4.00;1.00;;;;;18.30;62.35;100779.13;3047947;22;46125;-84
2022/10/24 07:10:18;;;;;;;;;2.00;1.00;;;;;18.29;61.91;100793.41;3059490;22;45093;-83
2022/10/24 07:11:28;;;;;;;;;3.00;1.50;;;;;18.31;62.20;100786.19;3059305;22;45467;-83
2022/10/24 07:12:39;;;;;;;;;3.75;2.00;;;;;18.33;61.93;100785.13;3059418;22;45171;-84
2022/10/24 07:13:49;;;;;;;;;4.25;1.25;;;;;18.35;62.17;100793.00;3042151;22;47603;-83
2022/10/24 07:15:00;;;;;;;;;5.50;2.00;;;;;18.35;62.11;100786.84;3047990;22;45253;-85
2022/10/24 07:16:11;;;;;;;;;5.50;1.00;;;;;18.36;61.74;100791.19;3043070;22;46901;-85
2022/10/24 07:17:21;;;;;;;;;2.00;1.25;;;;;18.30;62.10;100789.78;3048062;22;44566;-86
2022/10/24 07:18:31;;;;;;;;;3.25;1.00;;;;;18.31;62.54;100791.50;3042783;22;46453;-85
2022/10/24 07:19:42;;;;;;;;;2.00;2.00;;;;;18.33;62.02;100794.91;3048227;22;45155;-85
2022/10/24 07:20:52;;;;;;;;;3.75;2.00;;;;;18.33;61.72;100785.13;3058472;22;45286;-85
2022/10/24 07:22:03;;;;;;;;;6.00;1.75;;;;;18.33;62.26;100794.91;3059695;22;45179;-85
2022/10/24 07:23:13;;;;;;;;;0.50;0.25;;;;;18.27;62.32;100796.16;3042726;22;47880;-86
2022/10/24 07:24:24;;;;;;;;;1.00;1.00;;;;;18.25;62.05;100792.75;3032498;22;45298;-85
2022/10/24 07:25:37;;;;;;;;;3.00;2.25;;;;;18.31;61.97;100794.16;3047573;22;46091;-85
2022/10/24 07:26:47;;;;;;;;;1.00;1.00;;;;;18.31;62.13;100804.81;3059434;22;45286;-85
2022/10/24 07:27:58;;;;;;;;;2.50;1.00;;;;;18.30;62.00;100805.75;3059494;22;45356;-83
2022/10/24 07:29:08;;;;;;;;;4.75;2.00;;;;;18.28;62.23;100811.16;3058718;22;44785;-84
2022/10/24 07:30:18;;;;;;;;;6.00;1.00;;;;;18.29;62.09;100806.72;3056845;22;48119;-85
2022/10/24 07:31:31;;;;;;;;;2.25;1.50;;;;;18.25;62.14;100806.03;3058745;22;44584;-83
2022/10/24 07:32:41;;;;;;;;;6.50;1.25;;;;;18.28;62.69;100818.28;3058795;22;45270;-83
2022/10/24 07:33:52;;;;;;;;;4.75;1.75;;;;;18.29;62.49;100820.88;3059618;22;45183;-84
2022/10/24 07:35:02;;;;;;;;;3.25;1.50;;;;;18.32;62.61;100817.16;3059212;22;45308;-85
2022/10/24 07:36:18;;;;;;;;;2.00;1.25;;;;;18.36;62.27;100820.47;3059583;22;45108;-87
2022/10/24 07:37:29;;;;;;;;;1.00;1.00;;;;;18.36;62.47;100826.63;3057991;22;48044;-85
2022/10/24 07:38:39;;;;;;;;;1.25;1.25;;;;;18.37;62.19;100823.00;3053882;22;45088;-84
2022/10/24 07:39:49;;;;;;;;;3.00;2.00;;;;;18.40;62.07;100820.16;3047873;22;46027;-84
2022/10/24 07:41:04;;;;;;;;;1.50;1.25;;;;;18.43;62.09;100819.97;3043056;22;45139;-83
2022/10/24 07:42:15;;;;;;;;;2.00;1.00;;;;;18.44;61.93;100821.69;3048480;22;47497;-82
2022/10/24 07:43:26;;;;;;;;;3.50;1.00;;;;;18.48;61.94;100821.47;3057859;22;44738;-83
2022/10/24 07:44:36;;;;;;;;;3.25;1.00;;;;;18.47;62.28;100828.59;3042810;22;46882;-82
2022/10/24 07:45:47;;;;;;;;;3.00;1.00;;;;;18.48;62.40;100824.97;3047722;22;44680;-82
2022/10/24 07:46:58;;;;;;;;;2.00;1.75;;;;;18.44;61.96;100824.34;3059178;22;45279;-82
2022/10/24 07:48:09;;;;;;;;;2.00;1.75;;;;;18.49;62.23;100828.50;3059382;22;45257;-82
2022/10/24 07:49:19;;;;;;;;;6.00;3.25;;;;;18.52;62.19;100834.47;3058977;22;45101;-83
2022/10/24 07:50:29;;;;;;;;;1.00;1.00;;;;;18.53;62.29;100833.53;3042867;22;45174;-82
2022/10/24 07:51:41;;;;;;;;;3.75;2.00;;;;;18.53;62.05;100836.19;3031963;22;47069;-83
2022/10/24 07:52:52;;;;;;;;;2.00;2.00;;;;;18.54;62.08;100835.22;3048345;22;45198;-83
2022/10/24 07:54:02;;;;;;;;;0.25;0.25;;;;;18.53;62.13;100843.31;3059205;22;45218;-83
2022/10/24 07:55:13;;;;;;;;;0.75;0.75;;;;;18.52;61.80;100838.97;3059575;22;45112;-83
2022/10/24 07:56:24;;;;;;;;;6.25;2.00;;;;;18.51;62.00;100846.09;3059211;22;45615;-83
2022/10/24 07:57:34;;;;;;;;;8.00;1.25;;;;;18.52;62.12;100847.78;3059582;22;45358;-84
2022/10/24 07:58:46;;;;;;;;;2.50;2.00;;;;;18.52;62.23;100852.25;3059215;22;45380;-83
2022/10/24 07:59:56;;;;;;;;;7.25;4.00;;;;;18.54;61.93;100845.84;3059062;22;44709;-82
2022/10/24 08:01:12;;;;;;;;;2.75;2.25;;;;;18.52;61.96;100849.59;3058997;22;45460;-82
2022/10/24 08:02:22;;;;;;;;;1.25;1.00;;;;;18.54;62.33;100845.03;3059616;22;45199;-83
2022/10/24 08:03:33;;;;;;;;;2.25;2.00;;;;;18.60;61.76;100849.94;3059209;22;45484;-83
2022/10/24 08:04:44;;;;;;;;;7.00;2.00;;;;;18.60;62.10;100854.41;3058928;22;45282;-83
2022/10/24 08:05:55;;;;;;;;;4.00;1.25;;;;;18.55;61.92;100858.22;3058984;22;45268;-83
2022/10/24 08:07:11;;;;;;;;;5.25;1.00;;;;;18.54;62.16;100845.03;3058870;22;45324;-83
2022/10/24 08:08:22;;;;;;;;;4.50;1.00;;;;;18.50;61.93;100859.47;3059437;22;45220;-83
2022/10/24 08:09:37;;;;;;;;;3.75;2.75;;;;;18.52;62.60;100860.25;3059494;22;45107;-82
2022/10/24 08:10:47;;;;;;;;;2.75;1.00;;;;;18.57;62.19;100866.09;3058986;22;45601;-82
2022/10/24 08:11:57;;;;;;;;;3.25;1.25;;;;;18.64;62.17;100861.25;3043043;22;44656;-82
2022/10/24 08:13:08;;;;;;;;;3.25;1.00;;;;;18.69;61.56;100863.59;3047448;22;45358;-83
2022/10/24 08:14:18;;;;;;;;;2.00;1.25;;;;;18.70;62.07;100859.97;3059192;22;45288;-83
2022/10/24 08:15:28;;;;;;;;;2.75;0.00;;;;;18.72;61.98;100863.38;3058929;22;45347;-83
2022/10/24 08:16:41;;;;;;;;;2.00;0.50;;;;;18.70;61.94;100865.28;3059637;22;45263;-83
2022/10/24 08:17:51;;;;;;;;;1.25;1.25;;;;;18.72;61.68;100863.38;3059077;22;45199;-83
2022/10/24 08:19:01;;;;;;;;;3.75;2.00;;;;;18.76;62.36;100860.44;3059126;22;45167;-82
2022/10/24 08:20:12;;;;;;;;;4.00;2.00;;;;;18.78;61.67;100865.66;3057434;22;46355;-84
2022/10/24 08:21:23;;;;;;;;;2.00;0.75;;;;;18.80;62.09;100863.75;3059014;22;45152;-83
2022/10/24 08:22:34;;;;;;;;;1.75;1.75;;;;;18.84;61.85;100861.75;3058901;22;45220;-83
2022/10/24 08:23:47;;;;;;;;;2.25;0.75;;;;;18.86;61.71;100858.03;3059540;22;45170;-83
2022/10/24 08:24:57;;;;;;;;;4.25;1.75;;;;;18.86;61.97;100858.03;3059008;22;46462;-83
2022/10/24 08:26:11;;;;;;;;;5.50;1.50;;;;;18.92;61.39;100855.88;3043097;22;44585;-82
2022/10/24 08:27:22;;;;;;;;;3.75;1.25;;;;;18.95;61.60;100867.19;3047494;22;45406;-83
2022/10/24 08:28:32;;;;;;;;;2.50;1.00;;;;;18.96;61.49;100860.06;3058846;22;45244;-83
2022/10/24 08:29:43;;;;;;;;;4.75;1.50;;;;;18.96;61.42;100865.41;3058749;22;46347;-83
2022/10/24 08:30:58;;;;;;;;;2.25;1.00;;;;;18.92;61.72;100864.72;3059486;22;45147;-83
2022/10/24 08:32:08;;;;;;;;;2.25;0.50;;;;;18.93;61.40;100860.25;3059213;22;46066;-83
2022/10/24 08:33:18;;;;;;;;;2.75;1.75;;;;;18.95;61.39;100861.00;3059538;22;44719;-83
2022/10/24 08:34:29;;;;;;;;;2.25;1.00;;;;;18.99;61.47;100862.50;3059404;22;45334;-83
2022/10/24 08:35:42;;;;;;;;;4.75;1.50;;;;;19.03;60.97;100861.38;3059426;22;45104;-83
2022/10/24 08:36:53;;;;;;;;;3.00;1.00;;;;;19.06;60.98;100865.63;3058565;22;45401;-83
2022/10/24 08:38:03;;;;;;;;;4.00;1.00;;;;;19.10;61.33;100864.47;3058977;22;45230;-83
2022/10/24 08:39:14;;;;;;;;;2.50;1.50;;;;;19.12;61.09;100867.88;3058689;22;45245;-83
2022/10/24 08:40:24;;;;;;;;;6.25;2.00;;;;;19.16;61.12;100866.69;3059129;22;45215;-83
2022/10/24 08:41:38;;;;;;;;;1.50;1.25;;;;;19.19;60.50;100866.53;3042148;22;46145;-83
2022/10/24 08:42:49;;;;;;;;;2.00;2.00;;;;;19.23;61.14;100867.19;3047700;22;45151;-83
2022/10/24 08:44:02;;;;;;;;;5.50;1.00;;;;;19.21;60.98;100869.09;3058867;22;45175;-83
2022/10/24 08:45:42;;;;;;;;;2.50;1.25;;;;;19.20;60.92;100872.72;3059262;22;45221;-83
2022/10/24 08:47:06;;;;;;;;;1.75;1.00;;;;;19.16;60.73;100871.19;3059014;22;46037;-83
2022/10/24 08:48:26;;;;;;;;;4.25;2.00;;;;;19.19;60.79;100876.31;3059502;22;45328;-83
2022/10/24 08:49:45;;;;;;;;;1.00;1.00;;;;;19.22;60.53;100874.31;3042370;22;46195;-83
2022/10/24 08:51:10;;;;;;;;;3.00;1.00;;;;;19.18;60.96;100870.16;3049531;22;45415;-82
2022/10/24 08:52:38;;;;;;;;;3.00;2.00;;;;;19.22;60.88;100881.44;3059007;22;45176;-83
2022/10/24 08:53:52;;;;;;;;;2.00;1.00;;;;;19.24;60.67;100876.88;3058893;22;45123;-83
2022/10/24 08:55:20;;;;;;;;;1.00;1.00;;;;;19.24;60.55;100884.84;3058399;22;45429;-83
2022/10/24 08:56:32;;;;;;;;;4.25;2.50;;;;;19.20;60.42;100881.56;3058975;22;44640;-83
2022/10/24 08:57:49;;;;;;;;;1.00;1.00;;;;;19.12;60.48;100881.19;3058844;22;45336;-83
2022/10/24 08:59:02;;;;;;;;;2.25;1.00;;;;;19.17;60.98;100878.22;3059117;22;45199;-83
2022/10/24 09:00:22;;;;;;;;;3.75;2.00;;;;;19.20;61.07;100888.69;3059135;22;45452;-83
2022/10/24 09:01:57;;;;;;;;;6.00;2.00;;;;;19.18;60.80;100887.94;3058803;22;45243;-83
2022/10/24 09:03:25;;;;;;;;;2.75;1.50;;;;;19.15;60.68;100883.66;3059122;22;45886;-84
2022/10/24 09:04:44;;;;;;;;;1.00;1.00;;;;;19.17;61.04;100883.53;3042524;22;45337;-80
2022/10/24 09:06:00;;;;;;;;;3.25;3.25;;;;;19.19;60.71;100893.16;3049401;22;45326;-84
2022/10/24 09:07:18;;;;;;;;;3.50;1.00;;;;;19.22;60.75;100892.09;3059247;22;45220;-84
2022/10/24 09:08:45;;;;;;;;;4.75;3.00;;;;;19.26;60.66;100901.59;3058753;22;45397;-84
2022/10/24 09:10:15;;;;;;;;;1.50;0.75;;;;;19.27;60.58;100894.47;3059423;22;45355;-84
2022/10/24 09:11:53;;;;;;;;;2.50;2.00;;;;;19.28;60.53;100901.50;3059001;22;46219;-84
2022/10/24 09:13:12;;;;;;;;;5.00;1.25;;;;;19.25;60.63;100888.38;3059021;22;44593;-84
2022/10/24 09:14:28;;;;;;;;;4.50;3.00;;;;;19.19;60.61;100885.19;3059247;22;45373;-85
2022/10/24 09:15:40;;;;;;;;;2.00;2.00;;;;;19.19;60.62;100890.50;3059290;22;45198;-79
2022/10/24 09:16:55;;;;;;;;;4.75;2.00;;;;;19.17;60.48;100881.75;3058473;22;48565;-86
2022/10/24 09:18:19;;;;;;;;;1.50;1.25;;;;;19.19;60.53;100894.97;3059593;22;45275;-87
2022/10/24 09:19:31;;;;;;;;;5.25;3.00;;;;;19.16;60.51;100896.00;3058951;22;46081;-86
2022/10/24 09:20:41;;;;;;;;;3.50;1.75;;;;;19.17;60.90;100888.88;3059132;22;45063;-86
2022/10/24 09:21:55;;;;;;;;;7.25;2.00;;;;;19.21;60.76;100901.06;3041164;22;47897;-87
2022/10/24 09:23:05;;;;;;;;;3.50;1.25;;;;;19.21;60.38;100896.56;3048228;22;45171;-86
2022/10/24 09:24:44;;;;;;;;;4.00;1.25;;;;;19.25;60.60;100901.72;3042189;22;47416;-80
2022/10/24 09:25:56;;;;;;;;;3.00;1.75;;;;;19.28;60.77;100890.84;3053742;22;45381;-82
2022/10/24 09:27:14;;;;;;;;;3.00;1.00;;;;;19.33;60.32;100889.56;3058741;22;45272;-83
2022/10/24 09:28:25;;;;;;;;;4.00;1.25;;;;;19.36;60.15;100896.50;3058664;22;45312;-82
2022/10/24 09:29:36;;;;;;;;;4.50;1.75;;;;;19.39;60.45;100896.28;3035457;22;46734;-83
2022/10/24 09:30:47;;;;;;;;;3.25;2.25;;;;;19.42;59.89;100909.41;3043918;22;45689;-82
2022/10/24 09:31:58;;;;;;;;;6.25;2.25;;;;;19.43;60.04;100904.94;3057990;22;45246;-82
2022/10/24 09:33:21;;;;;;;;;1.25;1.25;;;;;19.47;60.03;100905.56;3058068;22;45215;-82
2022/10/24 09:34:31;;;;;;;;;1.75;0.75;;;;;19.48;59.97;100910.81;3058583;22;45882;-82
2022/10/24 09:35:42;;;;;;;;;4.50;1.25;;;;;19.55;60.12;100913.91;3057474;22;45163;-86
2022/10/24 09:36:53;;;;;;;;;0.75;0.75;;;;;19.58;59.77;100923.50;3040531;22;47271;-83
2022/10/24 09:38:23;;;;;;;;;4.25;3.50;;;;;19.62;59.80;100919.66;3046747;22;45260;-83
2022/10/24 09:39:33;;;;;;;;;7.00;1.50;;;;;19.62;60.39;100912.53;3057678;22;45250;-83
2022/10/24 09:40:49;;;;;;;;;2.00;1.00;;;;;19.65;60.12;100911.47;3058586;22;45274;-83
2022/10/24 09:42:00;;;;;;;;;4.25;2.25;;;;;19.70;59.64;100925.34;3058385;22;46204;-83
2022/10/24 09:43:25;;;;;;;;;2.50;0.50;;;;;19.72;59.75;100920.75;3057637;22;45229;-83
2022/10/24 09:44:42;;;;;;;;;7.50;2.00;;;;;19.76;59.81;100918.69;3057317;22;46237;-83
2022/10/24 09:46:12;;;;;;;;;4.00;1.00;;;;;19.83;59.56;100916.47;3057460;22;45188;-80
2022/10/24 09:47:27;;;;;;;;;7.75;1.00;;;;;19.87;59.52;100917.97;3058061;22;45482;-81
2022/10/24 09:48:50;;;;;;;;;2.50;2.00;;;;;19.93;59.24;100927.34;3058389;22;45239;-83
2022/10/24 09:50:00;;;;;;;;;3.00;1.00;;;;;19.94;59.49;100932.56;3058316;22;45419;-82
2022/10/24 09:51:33;;;;;;;;;2.75;1.75;;;;;19.98;59.09;100927.88;3057517;22;45241;-83
2022/10/24 09:52:48;;;;;;;;;5.25;2.25;;;;;19.99;59.50;100922.44;3058217;22;46257;-83
2022/10/24 09:54:17;;;;;;;;;1.00;1.00;;;;;20.04;59.21;100926.59;3058860;22;45190;-82
2022/10/24 09:55:28;;;;;;;;;4.50;2.25;;;;;20.07;59.16;100924.56;3059248;22;46405;-84
2022/10/24 09:56:40;;;;;;;;;4.00;1.00;;;;;20.09;58.89;100927.13;3058844;22;44562;-83
2022/10/24 09:57:53;;;;;;;;;2.75;2.00;;;;;20.10;58.95;100929.66;3057877;22;46493;-84
2022/10/24 09:59:25;;;;;;;;;1.50;1.00;;;;;20.16;58.96;100927.56;3058935;22;45324;-82
2022/10/24 10:00:36;;;;;;;;;1.00;1.00;;;;;20.17;58.68;100929.28;3059458;22;45523;-83
2022/10/24 10:01:48;;;;;;;;;1.00;1.00;;;;;20.22;58.78;100925.28;3059659;22;44636;-84
2022/10/24 10:03:03;;;;;;;;;2.25;0.50;;;;;20.25;58.53;100929.56;3058146;22;47456;-82
2022/10/24 10:04:18;;;;;;;;;1.75;1.50;;;;;20.26;58.44;100927.75;3059145;22;44605;-83
2022/10/24 10:05:41;;;;;;;;;1.75;1.00;;;;;20.29;58.81;100924.88;3059835;22;45395;-83
2022/10/24 10:06:52;;;;;;;;;3.25;1.50;;;;;20.29;58.63;100933.75;3043245;22;45208;-83
2022/10/24 10:08:10;;;;;;;;;3.50;1.25;;;;;20.31;58.57;100928.28;3043189;22;47627;-83
2022/10/24 10:09:27;;;;;;;;;2.00;1.00;;;;;20.33;58.43;100918.34;3049741;22;45256;-83
2022/10/24 10:10:39;;;;;;;;;3.75;2.00;;;;;20.34;58.17;100930.75;3043519;22;47004;-84
2022/10/24 10:11:57;;;;;;;;;4.00;1.50;;;;;20.32;58.33;100922.81;3028207;22;45177;-81
2022/10/24 10:13:14;;;;;;;;;2.00;2.00;;;;;20.32;58.41;100938.84;3034153;22;46582;-83
2022/10/24 10:14:27;;;;;;;;;1.25;1.00;;;;;20.34;58.88;100939.59;3044524;22;45412;-82
2022/10/24 10:15:45;;;;;;;;;2.00;2.00;;;;;20.32;58.48;100943.34;3044023;22;45327;-81
2022/10/24 10:17:04;;;;;;;;;5.00;1.00;;;;;20.33;58.63;100950.38;3044588;22;45206;-83
2022/10/24 10:18:40;;;;;;;;;1.75;1.75;;;;;20.32;58.53;100941.50;3044039;22;46059;-83
2022/10/24 10:19:51;;;;;;;;;4.50;3.00;;;;;20.31;58.82;100938.97;3044471;22;45282;-83
2022/10/24 10:21:12;;;;;;;;;5.50;2.00;;;;;20.32;58.69;100938.00;3044457;22;45242;-82
2022/10/24 10:22:28;;;;;;;;;1.75;1.00;;;;;20.30;58.06;100945.25;3044962;22;44544;-82
2022/10/24 10:23:49;;;;;;;;;0.00;0.00;;;;;20.31;58.53;100930.94;3027590;22;47136;-82
2022/10/24 10:25:00;;;;;;;;;8.50;1.00;;;;;20.28;58.60;100936.50;3035389;22;44554;-83
2022/10/24 10:26:13;;;;;;;;;4.25;1.50;;;;;20.31;58.14;100945.16;3044423;22;46586;-83
2022/10/24 10:27:39;;;;;;;;;4.75;1.00;;;;;20.32;59.14;100936.16;3044211;22;45167;-82
2022/10/24 10:28:54;;;;;;;;;3.25;1.00;;;;;20.37;58.64;100935.00;3043166;22;45266;-82
2022/10/24 10:30:16;;;;;;;;;5.50;1.50;;;;;20.41;58.59;100941.81;3044369;22;45183;-82
2022/10/24 10:31:34;;;;;;;;;1.25;1.00;;;;;20.46;58.58;100934.34;3044281;22;46175;-82
2022/10/24 10:33:02;;;;;;;;;3.75;1.00;;;;;20.52;58.69;100938.38;3044308;22;44688;-82
2022/10/24 10:34:24;;;;;;;;;3.00;1.00;;;;;20.56;58.64;100934.53;3044621;22;46467;-82
2022/10/24 10:35:40;;;;;;;;;2.75;1.00;;;;;20.60;57.72;100949.34;3044440;22;44642;-82
2022/10/24 10:37:07;;;;;;;;;2.75;1.00;;;;;20.63;58.17;100941.13;3044308;22;45439;-83
2022/10/24 10:38:42;;;;;;;;;3.50;1.50;;;;;20.66;58.36;100940.03;3044461;22;45795;-82
2022/10/24 10:40:10;;;;;;;;;1.75;1.75;;;;;20.67;58.17;100939.91;3027230;22;47560;-82
2022/10/24 10:41:27;;;;;;;;;1.50;0.00;;;;;20.67;58.16;100941.72;3037386;22;45170;-83
2022/10/24 10:43:13;;;;;;;;;5.75;1.00;;;;;20.67;58.07;100944.41;3044100;22;45379;-82
2022/10/24 10:44:48;;;;;;;;;2.00;2.00;;;;;20.66;57.99;100938.22;3044610;22;44541;-83
2022/10/24 10:46:24;;;;;;;;;3.75;2.50;;;;;20.66;58.06;100945.38;3044428;22;45558;-82
2022/10/24 10:48:06;;;;;;;;;2.75;1.75;;;;;20.63;57.70;100943.78;3044207;22;45100;-83
2022/10/24 10:49:31;;;;;;;;;1.50;0.50;;;;;20.57;58.19;100947.75;3043685;22;45338;-82
2022/10/24 10:50:56;;;;;;;;;2.00;1.00;;;;;20.59;58.07;100947.66;3043563;22;45488;-83
2022/10/24 10:52:19;;;;;;;;;2.00;1.00;;;;;20.61;57.49;100953.72;3044425;22;45310;-82
2022/10/24 10:53:53;;;;;;;;;3.75;1.50;;;;;20.60;57.80;100949.34;3044478;22;45211;-83
2022/10/24 10:55:31;;;;;;;;;1.75;0.00;;;;;20.58;57.92;100943.28;3043699;22;45646;-83
2022/10/24 10:56:50;;;;;;;;;3.25;1.00;;;;;20.60;58.25;100960.03;3027123;22;45195;-83
2022/10/24 10:58:01;;;;;;;;;0.50;0.50;;;;;20.63;57.77;100950.94;3033982;22;46298;-83
2022/10/24 10:59:17;;;;;;;;;1.75;1.00;;;;;20.63;57.89;100951.81;3026625;22;44563;-82
2022/10/24 11:00:47;;;;;;;;;1.25;1.25;;;;;20.63;57.96;100957.13;3034001;22;45407;-83
2022/10/24 11:02:18;;;;;;;;;3.50;2.00;;;;;20.60;57.93;100949.34;3042129;22;45650;-81
2022/10/24 11:03:37;;;;;;;;;1.75;1.00;;;;;20.57;58.23;100952.22;3043475;22;46181;-82
2022/10/24 11:05:22;;;;;;;;;2.50;2.00;;;;;20.55;58.02;100955.03;3043512;22;45591;-82
2022/10/24 11:06:45;;;;;;;;;2.50;1.00;;;;;20.54;58.09;100952.47;3043565;22;46704;-83
2022/10/24 11:08:05;;;;;;;;;3.50;1.50;;;;;20.52;58.05;100959.75;3044048;22;44707;-79
2022/10/24 11:09:26;;;;;;;;;2.00;1.00;;;;;20.52;58.33;100960.56;3043669;22;46493;-79
2022/10/24 11:10:48;;;;;;;;;1.00;1.00;;;;;20.49;58.40;100951.94;3027140;22;45412;-83
2022/10/24 11:12:16;;;;;;;;;6.00;2.50;;;;;20.53;58.81;100951.63;3033857;22;45378;-83
2022/10/24 11:13:33;;;;;;;;;3.25;1.25;;;;;20.55;58.48;100955.03;3042859;22;45404;-83
2022/10/24 11:14:49;;;;;;;;;3.50;1.00;;;;;20.61;58.42;100950.19;3044217;22;45442;-83
2022/10/24 11:16:05;;;;;;;;;3.00;1.75;;;;;20.62;58.08;100952.75;3043751;22;45023;-83
2022/10/24 11:17:21;;;;;;;;;2.75;1.00;;;;;20.64;58.04;100952.66;3044009;22;46418;-83
2022/10/24 11:18:39;;;;;;;;;4.00;2.00;;;;;20.63;58.24;100949.13;3044270;22;44647;-82
2022/10/24 11:20:00;;;;;;;;;1.00;1.00;;;;;20.64;58.18;100948.16;3043561;22;46476;-83
2022/10/24 11:21:13;;;;;;;;;2.75;1.25;;;;;20.66;57.78;100969.41;3044450;22;45159;-83
2022/10/24 11:22:29;;;;;;;;;4.50;1.00;;;;;20.65;57.85;100959.69;3043175;22;45444;-83
2022/10/24 11:23:48;;;;;;;;;1.50;1.50;;;;;20.64;58.02;100958.00;3044459;22;45173;-83
2022/10/24 11:25:46;;;;;;;;;1.50;1.50;;;;;20.60;58.19;100960.03;3043965;22;45406;-83
2022/10/24 11:27:21;;;;;;;;;3.75;1.00;;;;;20.56;58.63;100955.88;2998283;22;45357;-83
2022/10/24 11:28:53;;;;;;;;;2.00;2.00;;;;;20.52;58.33;100959.75;3033701;22;46257;-82
2022/10/24 11:30:12;;;;;;;;;2.00;2.00;;;;;20.48;58.52;100971.59;3044641;22;45218;-82
2022/10/24 11:31:35;;;;;;;;;1.50;1.00;;;;;20.43;59.59;100964.78;3027849;22;47118;-83
2022/10/24 11:33:01;;;;;;;;;2.25;1.00;;;;;20.39;60.23;100949.94;3036213;22;45270;-83
2022/10/24 11:34:19;;;;;;;;;2.00;0.25;;;;;20.35;60.37;100943.97;3044279;22;46513;-83
2022/10/24 11:35:32;;;;;;;;;2.00;0.00;;;;;20.35;59.90;100951.13;3044704;22;45125;-83
2022/10/24 11:36:49;;;;;;;;;2.75;0.50;;;;;20.32;60.10;100951.34;3044041;22;45709;-83
2022/10/24 11:38:13;;;;;;;;;2.00;1.00;;;;;20.27;60.81;100961.50;3044444;22;45152;-83
2022/10/24 11:39:34;;;;;;;;;3.25;1.00;;;;;20.21;60.87;100949.44;3044451;22;45433;-82
2022/10/24 11:40:49;;;;;;;;;2.00;1.25;;;;;20.19;60.85;100949.56;3044568;22;44577;-83
2022/10/24 11:42:25;;;;;;;;;1.25;0.75;;;;;20.16;61.15;100943.56;3044084;22;45361;-83
2022/10/24 11:43:43;;;;;;;;;1.50;1.50;;;;;20.16;61.11;100951.56;3043630;22;45313;-82
2022/10/24 11:45:10;;;;;;;;;4.50;2.00;;;;;20.14;61.57;100951.69;3043894;22;46019;-83
2022/10/24 11:46:27;;;;;;;;;7.00;1.00;;;;;20.15;61.14;100953.38;3028039;22;45175;-83
2022/10/24 11:47:57;;;;;;;;;2.50;1.00;;;;;20.16;61.09;100954.25;3034381;22;45559;-82
2022/10/24 11:49:30;;;;;;;;;1.75;1.00;;;;;20.17;61.08;100950.63;3044602;22;44712;-82
2022/10/24 11:51:02;;;;;;;;;3.50;3.00;;;;;20.22;61.57;100953.81;3044303;22;46331;-83
2022/10/24 11:52:24;;;;;;;;;5.00;1.00;;;;;20.28;61.43;100957.84;3044665;22;45152;-83
2022/10/24 11:53:37;;;;;;;;;2.25;1.00;;;;;20.31;61.13;100952.31;3044399;22;45409;-83
2022/10/24 11:54:58;;;;;;;;;1.50;1.25;;;;;20.33;61.49;100951.22;3044376;22;45328;-83
2022/10/24 11:56:29;;;;;;;;;2.50;2.00;;;;;20.39;60.91;100947.28;3044393;22;46198;-83
2022/10/24 11:57:43;;;;;;;;;4.00;2.00;;;;;20.42;61.02;100943.53;3044711;22;45162;-83
2022/10/24 11:58:58;;;;;;;;;2.25;2.00;;;;;20.48;61.53;100939.56;3043778;22;45260;-83
2022/10/24 12:00:26;;;;;;;;;3.00;2.00;;;;;20.55;61.61;100940.81;3043972;22;45201;-83
2022/10/24 12:01:54;;;;;;;;;3.25;2.00;;;;;20.63;60.79;100943.78;3027691;22;46684;-83
2022/10/24 12:03:30;;;;;;;;;3.50;2.00;;;;;20.68;60.16;100940.78;3037111;22;44712;-83
2022/10/24 12:05:21;;;;;;;;;3.00;1.75;;;;;20.73;60.53;100930.63;3044469;22;46324;-83
2022/10/24 12:06:37;;;;;;;;;5.00;2.50;;;;;20.83;60.56;100933.47;3043110;22;45179;-83
2022/10/24 12:07:48;;;;;;;;;2.25;2.00;;;;;20.89;60.25;100941.00;3044586;22;46530;-83
2022/10/24 12:09:39;;;;;;;;;2.00;2.00;;;;;20.99;60.28;100935.00;3027982;22;45268;-83
2022/10/24 12:11:17;;;;;;;;;2.25;2.25;;;;;21.07;59.69;100929.09;3023256;22;45200;-83
2022/10/24 12:12:43;;;;;;;;;2.50;1.50;;;;;21.11;59.78;100936.75;3044621;22;44571;-83
2022/10/24 12:14:19;;;;;;;;;5.00;2.25;;;;;21.17;59.07;100938.13;3044040;22;45221;-82
2022/10/24 12:15:38;;;;;;;;;3.00;1.00;;;;;21.20;58.88;100927.22;3044598;22;44540;-82
2022/10/24 12:16:58;;;;;;;;;1.25;1.00;;;;;21.23;58.79;100926.13;3027359;22;46417;-83
2022/10/24 12:18:23;;;;;;;;;1.75;1.00;;;;;21.25;58.91;100929.53;3035092;22;45361;-83
2022/10/24 12:19:39;;;;;;;;;1.75;0.75;;;;;21.25;58.49;100921.50;3044446;22;45491;-82
2022/10/24 12:20:52;;;;;;;;;2.00;1.00;;;;;21.27;58.42;100927.59;3044759;22;44569;-82
2022/10/24 12:22:04;;;;;;;;;1.75;1.00;;;;;21.29;58.40;100920.31;3044091;22;46174;-82
2022/10/24 12:23:28;;;;;;;;;2.25;1.00;;;;;21.27;58.26;100914.22;3044260;22;45249;-83
2022/10/24 12:24:40;;;;;;;;;1.75;1.00;;;;;21.25;57.58;100913.50;3044501;22;45650;-82
2022/10/24 12:26:11;;;;;;;;;1.00;1.00;;;;;21.28;57.98;100915.94;3044639;22;44570;-82
2022/10/24 12:27:38;;;;;;;;;7.50;2.00;;;;;21.26;58.53;100917.84;3044071;22;45357;-82